sensor_id;sensor_type;location;lat;lon;timestamp;pressure;altitude;pressure_sealevel;temperature;humidity
64853;BME280;56050;55.558;-4.644;2023-02-21T00:01:51;101554.94;;;11.92;74.35
64853;BME280;56050;55.558;-4.644;2023-02-21T00:04:35;101547.97;;;11.91;74.38
64853;BME280;56050;55.558;-4.644;2023-02-21T00:07:19;101556.47;;;11.89;74.45
64853;BME280;56050;55.558;-4.644;2023-02-21T00:10:04;101559.53;;;11.88;74.34
64853;BME280;56050;55.558;-4.644;2023-02-21T00:12:48;101551.44;;;11.88;74.53
64853;BME280;56050;55.558;-4.644;2023-02-21T00:15:32;101551.03;;;11.86;74.55
64853;BME280;56050;55.558;-4.644;2023-02-21T00:18:17;101553.72;;;11.86;74.68
64853;BME280;56050;55.558;-4.644;2023-02-21T00:21:02;101556.03;;;11.84;74.49
64853;BME280;56050;55.558;-4.644;2023-02-21T00:23:46;101554.88;;;11.81;74.58
64853;BME280;56050;55.558;-4.644;2023-02-21T00:26:30;101560.63;;;11.79;74.90
64853;BME280;56050;55.558;-4.644;2023-02-21T00:29:14;101559.09;;;11.78;74.71
64853;BME280;56050;55.558;-4.644;2023-02-21T00:31:57;101546.75;;;11.81;74.59
64853;BME280;56050;55.558;-4.644;2023-02-21T00:34:42;101546.75;;;11.81;74.67
64853;BME280;56050;55.558;-4.644;2023-02-21T00:37:25;101556.41;;;11.82;74.64
64853;BME280;56050;55.558;-4.644;2023-02-21T00:40:11;101553.69;;;11.82;74.67
64853;BME280;56050;55.558;-4.644;2023-02-21T00:42:55;101563.34;;;11.83;74.82
64853;BME280;56050;55.558;-4.644;2023-02-21T00:45:39;101559.50;;;11.84;74.85
64853;BME280;56050;55.558;-4.644;2023-02-21T00:48:23;101567.97;;;11.83;74.85
64853;BME280;56050;55.558;-4.644;2023-02-21T00:51:08;101561.81;;;11.86;74.76
64853;BME280;56050;55.558;-4.644;2023-02-21T00:53:53;101555.66;;;11.85;74.84
64853;BME280;56050;55.558;-4.644;2023-02-21T00:56:37;101551.41;;;11.84;74.98
64853;BME280;56050;55.558;-4.644;2023-02-21T00:59:21;101552.94;;;11.85;74.84
64853;BME280;56050;55.558;-4.644;2023-02-21T01:02:05;101563.38;;;11.87;75.07
64853;BME280;56050;55.558;-4.644;2023-02-21T01:04:49;101547.97;;;11.87;74.98
64853;BME280;56050;55.558;-4.644;2023-02-21T01:07:33;101549.50;;;11.88;74.83
64853;BME280;56050;55.558;-4.644;2023-02-21T01:10:17;101549.50;;;11.88;74.88
64853;BME280;56050;55.558;-4.644;2023-02-21T01:13:02;101548.38;;;11.89;74.78
64853;BME280;56050;55.558;-4.644;2023-02-21T01:15:46;101549.16;;;11.90;74.94
64853;BME280;56050;55.558;-4.644;2023-02-21T01:18:30;101541.44;;;11.92;75.02
64853;BME280;56050;55.558;-4.644;2023-02-21T01:21:16;101553.03;;;11.92;74.93
64853;BME280;56050;55.558;-4.644;2023-02-21T01:24:00;101552.63;;;11.90;74.71
64853;BME280;56050;55.558;-4.644;2023-02-21T01:26:44;101551.47;;;11.91;74.89
64853;BME280;56050;55.558;-4.644;2023-02-21T01:29:28;101548.75;;;11.91;74.88
64853;BME280;56050;55.558;-4.644;2023-02-21T01:32:12;101548.38;;;11.89;74.70
64853;BME280;56050;55.558;-4.644;2023-02-21T01:34:56;101543.34;;;11.91;74.82
64853;BME280;56050;55.558;-4.644;2023-02-21T01:37:41;101543.75;;;11.90;74.53
64853;BME280;56050;55.558;-4.644;2023-02-21T01:40:25;101542.97;;;11.89;74.77
64853;BME280;56050;55.558;-4.644;2023-02-21T01:43:18;101539.09;;;11.87;74.64
64853;BME280;56050;55.558;-4.644;2023-02-21T01:46:03;101536.75;;;11.85;74.62
64853;BME280;56050;55.558;-4.644;2023-02-21T01:48:48;101545.22;;;11.84;74.54
64853;BME280;56050;55.558;-4.644;2023-02-21T01:51:36;101539.44;;;11.82;74.77
64853;BME280;56050;55.558;-4.644;2023-02-21T01:54:24;101545.59;;;11.78;74.71
64853;BME280;56050;55.558;-4.644;2023-02-21T01:57:09;101530.13;;;11.75;74.76
64853;BME280;56050;55.558;-4.644;2023-02-21T01:59:55;101535.13;;;11.73;74.60
64853;BME280;56050;55.558;-4.644;2023-02-21T02:03:00;101537.03;;;11.69;74.76
64853;BME280;56050;55.558;-4.644;2023-02-21T02:05:48;101539.66;;;11.66;74.92
64853;BME280;56050;55.558;-4.644;2023-02-21T02:08:33;101533.81;;;11.60;75.11
64853;BME280;56050;55.558;-4.644;2023-02-21T02:17:44;101520.63;;;11.52;75.25
64853;BME280;56050;55.558;-4.644;2023-02-21T02:20:25;101523.72;;;11.50;75.18
64853;BME280;56050;55.558;-4.644;2023-02-21T02:39:49;101522.94;;;11.50;75.31
64853;BME280;56050;55.558;-4.644;2023-02-21T02:42:29;101518.72;;;11.52;75.30
64853;BME280;56050;55.558;-4.644;2023-02-21T02:45:07;101525.28;;;11.55;75.25
64853;BME280;56050;55.558;-4.644;2023-02-21T02:47:38;101523.03;;;11.57;75.20
64853;BME280;56050;55.558;-4.644;2023-02-21T02:50:07;101516.06;;;11.56;75.22
64853;BME280;56050;55.558;-4.644;2023-02-21T02:52:34;101514.94;;;11.57;75.11
64853;BME280;56050;55.558;-4.644;2023-02-21T02:57:55;101516.47;;;11.58;75.30
64853;BME280;56050;55.558;-4.644;2023-02-21T03:00:22;101507.97;;;11.56;75.21
64853;BME280;56050;55.558;-4.644;2023-02-21T03:13:43;101503.75;;;11.58;75.33
64853;BME280;56050;55.558;-4.644;2023-02-21T03:16:23;101508.41;;;11.61;75.32
64853;BME280;56050;55.558;-4.644;2023-02-21T03:18:51;101502.63;;;11.63;75.22
64853;BME280;56050;55.558;-4.644;2023-02-21T03:21:28;101506.88;;;11.64;75.29
64853;BME280;56050;55.558;-4.644;2023-02-21T03:23:57;101501.88;;;11.66;75.37
64853;BME280;56050;55.558;-4.644;2023-02-21T03:26:26;101509.19;;;11.65;75.19
64853;BME280;56050;55.558;-4.644;2023-02-21T03:28:55;101506.91;;;11.67;75.34
64853;BME280;56050;55.558;-4.644;2023-02-21T03:31:23;101504.22;;;11.67;75.25
64853;BME280;56050;55.558;-4.644;2023-02-21T03:33:50;101510.03;;;11.69;75.17
64853;BME280;56050;55.558;-4.644;2023-02-21T03:36:16;101508.91;;;11.70;75.15
64853;BME280;56050;55.558;-4.644;2023-02-21T03:38:42;101505.03;;;11.71;75.09
64853;BME280;56050;55.558;-4.644;2023-02-21T03:41:08;101502.75;;;11.73;75.10
64853;BME280;56050;55.558;-4.644;2023-02-21T03:43:35;101501.19;;;11.72;75.14
64853;BME280;56050;55.558;-4.644;2023-02-21T03:46:01;101501.19;;;11.72;75.07
64853;BME280;56050;55.558;-4.644;2023-02-21T03:48:26;101498.09;;;11.70;74.90
64853;BME280;56050;55.558;-4.644;2023-02-21T03:50:52;101486.53;;;11.70;75.06
64853;BME280;56050;55.558;-4.644;2023-02-21T03:53:17;101486.53;;;11.70;75.19
64853;BME280;56050;55.558;-4.644;2023-02-21T03:55:42;101481.91;;;11.70;74.97
64853;BME280;56050;55.558;-4.644;2023-02-21T03:58:08;101481.13;;;11.70;75.05
64853;BME280;56050;55.558;-4.644;2023-02-21T04:00:34;101480.34;;;11.69;75.16
64853;BME280;56050;55.558;-4.644;2023-02-21T04:02:59;101483.03;;;11.69;75.23
64853;BME280;56050;55.558;-4.644;2023-02-21T04:05:24;101468.75;;;11.69;75.12
64853;BME280;56050;55.558;-4.644;2023-02-21T04:07:50;101473.34;;;11.68;75.04
64853;BME280;56050;55.558;-4.644;2023-02-21T04:10:15;101481.13;;;11.70;75.19
64853;BME280;56050;55.558;-4.644;2023-02-21T04:12:41;101481.13;;;11.70;75.09
64853;BME280;56050;55.558;-4.644;2023-02-21T04:15:06;101480.69;;;11.68;75.19
64853;BME280;56050;55.558;-4.644;2023-02-21T04:17:32;101477.22;;;11.67;75.06
64853;BME280;56050;55.558;-4.644;2023-02-21T04:19:57;101479.56;;;11.69;75.18
64853;BME280;56050;55.558;-4.644;2023-02-21T04:22:23;101479.19;;;11.70;75.02
64853;BME280;56050;55.558;-4.644;2023-02-21T04:24:48;101470.25;;;11.66;74.92
64853;BME280;56050;55.558;-4.644;2023-02-21T04:27:14;101469.13;;;11.67;75.12
64853;BME280;56050;55.558;-4.644;2023-02-21T04:29:40;101465.66;;;11.67;75.09
64853;BME280;56050;55.558;-4.644;2023-02-21T04:32:05;101464.16;;;11.69;75.21
64853;BME280;56050;55.558;-4.644;2023-02-21T04:34:31;101462.22;;;11.70;75.06
64853;BME280;56050;55.558;-4.644;2023-02-21T04:36:56;101454.13;;;11.70;75.27
64853;BME280;56050;55.558;-4.644;2023-02-21T04:39:22;101468.03;;;11.72;75.05
64853;BME280;56050;55.558;-4.644;2023-02-21T04:41:47;101464.19;;;11.73;75.07
64853;BME280;56050;55.558;-4.644;2023-02-21T04:44:12;101461.88;;;11.75;74.90
64853;BME280;56050;55.558;-4.644;2023-02-21T04:46:38;101466.13;;;11.76;74.71
64853;BME280;56050;55.558;-4.644;2023-02-21T04:49:04;101456.88;;;11.73;74.92
64853;BME280;56050;55.558;-4.644;2023-02-21T04:51:29;101452.59;;;11.72;74.76
64853;BME280;56050;55.558;-4.644;2023-02-21T04:53:54;101456.88;;;11.73;75.02
64853;BME280;56050;55.558;-4.644;2023-02-21T04:56:23;101451.47;;;11.73;75.06
64853;BME280;56050;55.558;-4.644;2023-02-21T04:58:49;101450.69;;;11.73;74.96
64853;BME280;56050;55.558;-4.644;2023-02-21T05:01:16;101452.22;;;11.74;75.01
64853;BME280;56050;55.558;-4.644;2023-02-21T05:03:42;101442.59;;;11.76;74.80
64853;BME280;56050;55.558;-4.644;2023-02-21T05:06:08;101449.16;;;11.75;74.88
64853;BME280;56050;55.558;-4.644;2023-02-21T05:08:35;101448.75;;;11.77;74.58
64853;BME280;56050;55.558;-4.644;2023-02-21T05:11:00;101437.97;;;11.77;74.86
64853;BME280;56050;55.558;-4.644;2023-02-21T05:13:26;101437.19;;;11.76;74.79
64853;BME280;56050;55.558;-4.644;2023-02-21T05:15:51;101434.13;;;11.78;74.86
64853;BME280;56050;55.558;-4.644;2023-02-21T05:18:16;101438.38;;;11.79;74.80
64853;BME280;56050;55.558;-4.644;2023-02-21T05:20:50;101419.50;;;11.79;74.70
64853;BME280;56050;55.558;-4.644;2023-02-21T05:23:17;101417.19;;;11.81;74.74
64853;BME280;56050;55.558;-4.644;2023-02-21T05:25:43;101416.78;;;11.83;74.80
64853;BME280;56050;55.558;-4.644;2023-02-21T05:28:09;101415.66;;;11.84;74.54
64853;BME280;56050;55.558;-4.644;2023-02-21T05:30:35;101411.03;;;11.84;74.56
64853;BME280;56050;55.558;-4.644;2023-02-21T05:33:01;101411.41;;;11.86;74.33
64853;BME280;56050;55.558;-4.644;2023-02-21T05:35:26;101411.03;;;11.88;74.55
64853;BME280;56050;55.558;-4.644;2023-02-21T05:37:51;101411.03;;;11.88;74.30
64853;BME280;56050;55.558;-4.644;2023-02-21T05:40:17;101412.59;;;11.89;74.36
64853;BME280;56050;55.558;-4.644;2023-02-21T05:42:43;101407.97;;;11.89;73.98
64853;BME280;56050;55.558;-4.644;2023-02-21T05:45:09;101407.94;;;11.86;74.08
64853;BME280;56050;55.558;-4.644;2023-02-21T05:47:35;101418.34;;;11.84;74.32
64853;BME280;56050;55.558;-4.644;2023-02-21T05:50:02;101412.94;;;11.84;74.25
64853;BME280;56050;55.558;-4.644;2023-02-21T05:52:28;101406.41;;;11.85;74.23
64853;BME280;56050;55.558;-4.644;2023-02-21T05:54:53;101412.94;;;11.84;74.29
64853;BME280;56050;55.558;-4.644;2023-02-21T05:57:19;101409.88;;;11.85;74.20
64853;BME280;56050;55.558;-4.644;2023-02-21T05:59:45;101396.38;;;11.85;74.12
64853;BME280;56050;55.558;-4.644;2023-02-21T06:02:13;101396.75;;;11.84;73.98
64853;BME280;56050;55.558;-4.644;2023-02-21T06:04:38;101394.41;;;11.82;73.80
64853;BME280;56050;55.558;-4.644;2023-02-21T06:07:04;101394.81;;;11.81;74.07
64853;BME280;56050;55.558;-4.644;2023-02-21T06:09:29;101387.84;;;11.79;73.78
64853;BME280;56050;55.558;-4.644;2023-02-21T06:11:55;101388.25;;;11.78;73.98
64853;BME280;56050;55.558;-4.644;2023-02-21T06:14:22;101383.63;;;11.78;73.97
64853;BME280;56050;55.558;-4.644;2023-02-21T06:16:47;101390.16;;;11.77;73.83
64853;BME280;56050;55.558;-4.644;2023-02-21T06:19:14;101392.47;;;11.75;73.83
64853;BME280;56050;55.558;-4.644;2023-02-21T06:21:41;101390.56;;;11.76;73.89
64853;BME280;56050;55.558;-4.644;2023-02-21T06:24:07;101390.91;;;11.74;73.77
64853;BME280;56050;55.558;-4.644;2023-02-21T06:26:33;101390.13;;;11.74;73.90
64853;BME280;56050;55.558;-4.644;2023-02-21T06:28:58;101392.84;;;11.74;73.87
64853;BME280;56050;55.558;-4.644;2023-02-21T06:31:24;101390.13;;;11.74;73.97
64853;BME280;56050;55.558;-4.644;2023-02-21T06:33:50;101389.78;;;11.75;73.68
64853;BME280;56050;55.558;-4.644;2023-02-21T06:36:18;101395.16;;;11.75;73.70
64853;BME280;56050;55.558;-4.644;2023-02-21T06:38:46;101395.16;;;11.75;73.76
64853;BME280;56050;55.558;-4.644;2023-02-21T06:41:14;101385.16;;;11.76;73.46
64853;BME280;56050;55.558;-4.644;2023-02-21T06:43:40;101380.50;;;11.76;73.48
64853;BME280;56050;55.558;-4.644;2023-02-21T06:46:06;101387.84;;;11.76;73.36
64853;BME280;56050;55.558;-4.644;2023-02-21T06:48:31;101387.06;;;11.75;73.70
64853;BME280;56050;55.558;-4.644;2023-02-21T06:50:57;101383.97;;;11.77;73.48
64853;BME280;56050;55.558;-4.644;2023-02-21T06:53:23;101385.94;;;11.80;73.22
64853;BME280;56050;55.558;-4.644;2023-02-21T06:55:48;101387.84;;;11.79;73.40
64853;BME280;56050;55.558;-4.644;2023-02-21T06:58:14;101391.72;;;11.78;73.21
64853;BME280;56050;55.558;-4.644;2023-02-21T07:00:39;101390.56;;;11.79;73.05
64853;BME280;56050;55.558;-4.644;2023-02-21T07:03:05;101385.16;;;11.79;73.29
64853;BME280;56050;55.558;-4.644;2023-02-21T07:05:31;101390.56;;;11.79;73.23
64853;BME280;56050;55.558;-4.644;2023-02-21T07:08:00;101383.22;;;11.80;72.93
64853;BME280;56050;55.558;-4.644;2023-02-21T07:10:26;101380.91;;;11.82;73.16
64853;BME280;56050;55.558;-4.644;2023-02-21T07:12:52;101382.09;;;11.81;72.94
64853;BME280;56050;55.558;-4.644;2023-02-21T07:15:18;101387.09;;;11.83;72.73
64853;BME280;56050;55.558;-4.644;2023-02-21T07:17:43;101380.91;;;11.82;72.96
64853;BME280;56050;55.558;-4.644;2023-02-21T07:20:09;101376.31;;;11.83;72.88
64853;BME280;56050;55.558;-4.644;2023-02-21T07:22:35;101379.00;;;11.83;72.64
64853;BME280;56050;55.558;-4.644;2023-02-21T07:25:00;101385.19;;;11.83;72.36
64853;BME280;56050;55.558;-4.644;2023-02-21T07:27:26;101383.63;;;11.82;72.54
64853;BME280;56050;55.558;-4.644;2023-02-21T07:29:51;101377.47;;;11.82;72.76
64853;BME280;56050;55.558;-4.644;2023-02-21T07:32:17;101383.63;;;11.82;72.51
64853;BME280;56050;55.558;-4.644;2023-02-21T07:34:43;101386.31;;;11.82;72.74
64853;BME280;56050;55.558;-4.644;2023-02-21T07:37:09;101381.69;;;11.83;72.73
64853;BME280;56050;55.558;-4.644;2023-02-21T07:39:35;101384.81;;;11.85;72.75
64853;BME280;56050;55.558;-4.644;2023-02-21T07:42:00;101382.50;;;11.87;72.41
64853;BME280;56050;55.558;-4.644;2023-02-21T07:44:26;101377.09;;;11.87;72.40
64853;BME280;56050;55.558;-4.644;2023-02-21T07:46:51;101375.94;;;11.88;72.56
64853;BME280;56050;55.558;-4.644;2023-02-21T07:49:17;101384.03;;;11.88;72.34
64853;BME280;56050;55.558;-4.644;2023-02-21T07:51:42;101392.13;;;11.88;72.36
64853;BME280;56050;55.558;-4.644;2023-02-21T07:54:08;101386.72;;;11.88;72.41
64853;BME280;56050;55.558;-4.644;2023-02-21T07:56:33;101387.13;;;11.86;72.36
64853;BME280;56050;55.558;-4.644;2023-02-21T07:58:58;101384.41;;;11.86;72.27
64853;BME280;56050;55.558;-4.644;2023-02-21T08:01:25;101385.56;;;11.85;72.21
64853;BME280;56050;55.558;-4.644;2023-02-21T08:03:51;101386.34;;;11.86;72.21
64853;BME280;56050;55.558;-4.644;2023-02-21T08:06:16;101390.22;;;11.88;72.22
64853;BME280;56050;55.558;-4.644;2023-02-21T08:08:43;101391.00;;;11.89;72.33
64853;BME280;56050;55.558;-4.644;2023-02-21T08:11:09;101387.50;;;11.88;72.18
64853;BME280;56050;55.558;-4.644;2023-02-21T08:13:34;101392.91;;;11.88;72.03
64853;BME280;56050;55.558;-4.644;2023-02-21T08:16:00;101388.69;;;11.87;72.25
64853;BME280;56050;55.558;-4.644;2023-02-21T08:18:25;101388.69;;;11.87;72.15
64853;BME280;56050;55.558;-4.644;2023-02-21T08:20:52;101389.06;;;11.89;72.13
64853;BME280;56050;55.558;-4.644;2023-02-21T08:23:18;101390.22;;;11.88;72.17
64853;BME280;56050;55.558;-4.644;2023-02-21T08:25:44;101389.84;;;11.90;72.24
64853;BME280;56050;55.558;-4.644;2023-02-21T08:28:11;101391.38;;;11.91;72.20
64853;BME280;56050;55.558;-4.644;2023-02-21T08:30:36;101397.19;;;11.93;72.13
64853;BME280;56050;55.558;-4.644;2023-02-21T08:33:02;101387.16;;;11.93;72.23
64853;BME280;56050;55.558;-4.644;2023-02-21T08:35:27;101384.09;;;11.95;72.03
64853;BME280;56050;55.558;-4.644;2023-02-21T08:37:53;101390.25;;;11.95;72.17
64853;BME280;56050;55.558;-4.644;2023-02-21T08:40:28;101390.25;;;11.99;72.00
64853;BME280;56050;55.558;-4.644;2023-02-21T08:42:53;101396.06;;;12.01;71.98
64853;BME280;56050;55.558;-4.644;2023-02-21T08:45:21;101383.72;;;12.00;72.06
64853;BME280;56050;55.558;-4.644;2023-02-21T08:47:47;101390.69;;;12.01;71.95
64853;BME280;56050;55.558;-4.644;2023-02-21T08:50:13;101387.19;;;12.00;71.89
64853;BME280;56050;55.558;-4.644;2023-02-21T08:52:39;101394.91;;;12.02;72.03
64853;BME280;56050;55.558;-4.644;2023-02-21T08:55:06;101388.75;;;12.01;71.90
64853;BME280;56050;55.558;-4.644;2023-02-21T08:57:31;101390.69;;;12.01;71.77
64853;BME280;56050;55.558;-4.644;2023-02-21T08:59:59;101379.88;;;12.01;71.75
64853;BME280;56050;55.558;-4.644;2023-02-21T09:02:24;101382.19;;;12.02;71.79
64853;BME280;56050;55.558;-4.644;2023-02-21T09:04:50;101378.69;;;12.02;71.89
64853;BME280;56050;55.558;-4.644;2023-02-21T09:07:17;101379.47;;;12.02;71.87
64853;BME280;56050;55.558;-4.644;2023-02-21T09:09:43;101377.16;;;12.04;71.91
64853;BME280;56050;55.558;-4.644;2023-02-21T09:12:09;101373.31;;;12.05;71.87
64853;BME280;56050;55.558;-4.644;2023-02-21T09:14:36;101371.00;;;12.07;71.77
64853;BME280;56050;55.558;-4.644;2023-02-21T09:17:03;101377.19;;;12.08;71.89
64853;BME280;56050;55.558;-4.644;2023-02-21T09:19:30;101373.34;;;12.09;71.73
64853;BME280;56050;55.558;-4.644;2023-02-21T09:21:55;101373.34;;;12.09;71.79
64853;BME280;56050;55.558;-4.644;2023-02-21T09:24:22;101371.03;;;12.11;71.82
64853;BME280;56050;55.558;-4.644;2023-02-21T09:26:53;101367.19;;;12.12;71.89
64853;BME280;56050;55.558;-4.644;2023-02-21T09:29:20;101357.91;;;12.13;71.83
64853;BME280;56050;55.558;-4.644;2023-02-21T09:31:47;101357.91;;;12.13;71.72
64853;BME280;56050;55.558;-4.644;2023-02-21T09:34:14;101357.91;;;12.13;71.75
64853;BME280;56050;55.558;-4.644;2023-02-21T09:36:39;101361.03;;;12.15;71.72
64853;BME280;56050;55.558;-4.644;2023-02-21T09:39:05;101358.72;;;12.17;71.66
64853;BME280;56050;55.558;-4.644;2023-02-21T09:41:32;101349.44;;;12.18;71.54
64853;BME280;56050;55.558;-4.644;2023-02-21T09:43:58;101339.41;;;12.18;71.72
64853;BME280;56050;55.558;-4.644;2023-02-21T09:47:09;101345.59;;;12.19;71.72
64853;BME280;56050;55.558;-4.644;2023-02-21T09:49:34;101349.09;;;12.23;71.61
64853;BME280;56050;55.558;-4.644;2023-02-21T09:52:01;101349.09;;;12.23;71.60
64853;BME280;56050;55.558;-4.644;2023-02-21T09:54:35;101349.84;;;12.27;71.64
64853;BME280;56050;55.558;-4.644;2023-02-21T09:57:04;101344.09;;;12.28;71.44
64853;BME280;56050;55.558;-4.644;2023-02-21T09:59:30;101348.72;;;12.31;71.54
64853;BME280;56050;55.558;-4.644;2023-02-21T10:07:59;101347.16;;;12.30;71.29
64853;BME280;56050;55.558;-4.644;2023-02-21T10:18:47;101328.66;;;12.36;71.23
64853;BME280;56050;55.558;-4.644;2023-02-21T10:21:37;101324.03;;;12.36;71.12
64853;BME280;56050;55.558;-4.644;2023-02-21T10:24:12;101324.41;;;12.38;71.11
64853;BME280;56050;55.558;-4.644;2023-02-21T10:26:39;101317.47;;;12.41;71.19
64853;BME280;56050;55.558;-4.644;2023-02-21T10:29:58;101317.09;;;12.43;70.80
64853;BME280;56050;55.558;-4.644;2023-02-21T10:32:24;101312.09;;;12.48;70.78
64853;BME280;56050;55.558;-4.644;2023-02-21T10:34:50;101315.19;;;12.50;70.51
64853;BME280;56050;55.558;-4.644;2023-02-21T10:40:04;101309.38;;;12.52;70.21
64853;BME280;56050;55.558;-4.644;2023-02-21T10:42:41;101311.31;;;12.51;70.39
64853;BME280;56050;55.558;-4.644;2023-02-21T10:45:09;101308.59;;;12.55;70.11
64853;BME280;56050;55.558;-4.644;2023-02-21T10:50:14;101311.69;;;12.60;70.03
64853;BME280;56050;55.558;-4.644;2023-02-21T10:52:49;101310.56;;;12.61;70.27
64853;BME280;56050;55.558;-4.644;2023-02-21T10:55:19;101311.31;;;12.65;69.55
64853;BME280;56050;55.558;-4.644;2023-02-21T10:57:49;101319.44;;;12.62;69.53
64853;BME280;56050;55.558;-4.644;2023-02-21T11:00:39;101316.34;;;12.60;69.90
64853;BME280;56050;55.558;-4.644;2023-02-21T11:05:51;101322.50;;;12.60;69.36
64853;BME280;56050;55.558;-4.644;2023-02-21T11:08:42;101324.84;;;12.58;69.46
64853;BME280;56050;55.558;-4.644;2023-02-21T11:11:08;101324.84;;;12.58;69.35
64853;BME280;56050;55.558;-4.644;2023-02-21T11:13:35;101331.00;;;12.55;69.25
64853;BME280;56050;55.558;-4.644;2023-02-21T11:16:17;101328.69;;;12.50;69.50
64853;BME280;56050;55.558;-4.644;2023-02-21T11:18:44;101327.13;;;12.49;69.37
64853;BME280;56050;55.558;-4.644;2023-02-21T11:21:13;101324.44;;;12.49;69.40
64853;BME280;56050;55.558;-4.644;2023-02-21T11:23:52;101327.13;;;12.49;69.46
64853;BME280;56050;55.558;-4.644;2023-02-21T11:26:22;101315.53;;;12.49;69.40
64853;BME280;56050;55.558;-4.644;2023-02-21T11:28:47;101313.25;;;12.47;69.32
64853;BME280;56050;55.558;-4.644;2023-02-21T11:31:29;101310.53;;;12.44;69.56
64853;BME280;56050;55.558;-4.644;2023-02-21T11:33:58;101317.47;;;12.45;69.51
64853;BME280;56050;55.558;-4.644;2023-02-21T11:36:30;101317.84;;;12.43;69.54
64853;BME280;56050;55.558;-4.644;2023-02-21T11:39:16;101309.38;;;12.45;69.71
64853;BME280;56050;55.558;-4.644;2023-02-21T11:41:53;101305.50;;;12.46;69.30
64853;BME280;56050;55.558;-4.644;2023-02-21T11:50:06;101303.19;;;12.44;69.25
64853;BME280;56050;55.558;-4.644;2023-02-21T11:55:00;101299.34;;;12.45;69.06
64853;BME280;56050;55.558;-4.644;2023-02-21T12:00:15;101284.66;;;12.46;69.12
64853;BME280;56050;55.558;-4.644;2023-02-21T12:11:27;101274.63;;;12.43;68.92
64853;BME280;56050;55.558;-4.644;2023-02-21T12:14:08;101274.63;;;12.43;68.87
64853;BME280;56050;55.558;-4.644;2023-02-21T12:42:39;101246.06;;;12.46;68.41
64853;BME280;56050;55.558;-4.644;2023-02-21T12:51:00;101226.00;;;12.50;68.45
64853;BME280;56050;55.558;-4.644;2023-02-21T12:53:55;101220.19;;;12.52;68.40
64853;BME280;56050;55.558;-4.644;2023-02-21T12:56:52;101219.03;;;12.53;68.41
64853;BME280;56050;55.558;-4.644;2023-02-21T12:59:40;101216.34;;;12.53;68.26
64853;BME280;56050;55.558;-4.644;2023-02-21T13:02:25;101209.00;;;12.53;68.02
64853;BME280;56050;55.558;-4.644;2023-02-21T13:04:58;101212.88;;;12.52;68.23
64853;BME280;56050;55.558;-4.644;2023-02-21T13:07:31;101215.56;;;12.52;67.87
64853;BME280;56050;55.558;-4.644;2023-02-21T13:13:01;101202.44;;;12.51;68.27
64853;BME280;56050;55.558;-4.644;2023-02-21T13:15:29;101199.75;;;12.51;68.42
64853;BME280;56050;55.558;-4.644;2023-02-21T13:18:10;101205.16;;;12.51;68.32
64853;BME280;56050;55.558;-4.644;2023-02-21T13:20:44;101204.75;;;12.52;68.27
64853;BME280;56050;55.558;-4.644;2023-02-21T13:28:51;101195.88;;;12.52;68.41
64853;BME280;56050;55.558;-4.644;2023-02-21T13:31:20;101192.78;;;12.53;68.50
64853;BME280;56050;55.558;-4.644;2023-02-21T13:33:58;101192.03;;;12.56;68.37
64853;BME280;56050;55.558;-4.644;2023-02-21T13:41:44;101176.59;;;12.53;68.11
64853;BME280;56050;55.558;-4.644;2023-02-21T13:44:32;101169.63;;;12.49;68.24
64853;BME280;56050;55.558;-4.644;2023-02-21T13:47:11;101174.63;;;12.43;68.14
64853;BME280;56050;55.558;-4.644;2023-02-21T13:49:56;101174.25;;;12.41;68.12
64853;BME280;56050;55.558;-4.644;2023-02-21T13:52:36;101168.09;;;12.37;67.95
64853;BME280;56050;55.558;-4.644;2023-02-21T13:57:42;101166.53;;;12.29;68.09
64853;BME280;56050;55.558;-4.644;2023-02-21T14:16:22;101155.75;;;12.25;68.32
64853;BME280;56050;55.558;-4.644;2023-02-21T14:18:55;101145.69;;;12.29;68.13
64853;BME280;56050;55.558;-4.644;2023-02-21T14:29:30;101139.94;;;12.27;68.08
64853;BME280;56050;55.558;-4.644;2023-02-21T14:32:15;101138.38;;;12.26;68.10
64853;BME280;56050;55.558;-4.644;2023-02-21T14:39:57;101127.97;;;12.21;68.04
64853;BME280;56050;55.558;-4.644;2023-02-21T14:53:38;101119.09;;;12.14;67.84
64853;BME280;56050;55.558;-4.644;2023-02-21T15:05:32;101119.09;;;12.10;68.09
64853;BME280;56050;55.558;-4.644;2023-02-21T15:10:45;101115.25;;;12.11;68.11
64853;BME280;56050;55.558;-4.644;2023-02-21T15:13:30;101105.22;;;12.08;68.04
64853;BME280;56050;55.558;-4.644;2023-02-21T15:16:03;101107.53;;;12.06;68.06
64853;BME280;56050;55.558;-4.644;2023-02-21T15:18:31;101105.97;;;12.05;68.20
64853;BME280;56050;55.558;-4.644;2023-02-21T15:23:32;101102.88;;;12.07;68.15
64853;BME280;56050;55.558;-4.644;2023-02-21T15:26:00;101092.06;;;12.07;68.16
64853;BME280;56050;55.558;-4.644;2023-02-21T15:28:31;101094.78;;;12.10;68.19
64853;BME280;56050;55.558;-4.644;2023-02-21T15:31:15;101092.09;;;12.10;68.14
64853;BME280;56050;55.558;-4.644;2023-02-21T15:33:42;101088.59;;;12.10;67.99
64853;BME280;56050;55.558;-4.644;2023-02-21T15:41:14;101074.72;;;12.04;67.82
64853;BME280;56050;55.558;-4.644;2023-02-21T15:44:02;101070.50;;;12.03;67.60
64853;BME280;56050;55.558;-4.644;2023-02-21T15:46:49;101063.94;;;12.01;67.94
64853;BME280;56050;55.558;-4.644;2023-02-21T15:49:29;101068.94;;;11.99;67.40
64853;BME280;56050;55.558;-4.644;2023-02-21T15:51:55;101065.50;;;11.98;67.55
64853;BME280;56050;55.558;-4.644;2023-02-21T15:54:23;101061.63;;;11.96;67.31
64853;BME280;56050;55.558;-4.644;2023-02-21T15:59:38;101062.78;;;11.91;67.32
64853;BME280;56050;55.558;-4.644;2023-02-21T16:04:43;101063.94;;;11.87;67.14
64853;BME280;56050;55.558;-4.644;2023-02-21T16:09:57;101055.06;;;11.83;67.31
64853;BME280;56050;55.558;-4.644;2023-02-21T16:12:40;101046.19;;;11.82;66.97
64853;BME280;56050;55.558;-4.644;2023-02-21T16:17:51;101038.50;;;11.81;66.94
64853;BME280;56050;55.558;-4.644;2023-02-21T16:20:21;101034.66;;;11.82;67.23
64853;BME280;56050;55.558;-4.644;2023-02-21T16:22:50;101024.22;;;11.80;67.12